sensor_id;sensor_type;location;lat;lon;timestamp;P1;durP1;ratioP1;P2;durP2;ratioP2
75887;SDS011;64562;55.662;37.300;2023-11-21T00:00:38;45.97;;;21.40;;
75887;SDS011;64562;55.662;37.300;2023-11-21T00:03:05;45.88;;;22.23;;
75887;SDS011;64562;55.662;37.300;2023-11-21T00:05:32;42.17;;;20.60;;
75887;SDS011;64562;55.662;37.300;2023-11-21T00:07:58;47.08;;;24.23;;
75887;SDS011;64562;55.662;37.300;2023-11-21T00:10:25;47.08;;;21.55;;
75887;SDS011;64562;55.662;37.300;2023-11-21T00:12:51;46.72;;;21.50;;
75887;SDS011;64562;55.662;37.300;2023-11-21T00:15:20;46.55;;;21.52;;
75887;SDS011;64562;55.662;37.300;2023-11-21T00:17:48;43.03;;;20.42;;
75887;SDS011;64562;55.662;37.300;2023-11-21T00:20:14;43.05;;;21.10;;
75887;SDS011;64562;55.662;37.300;2023-11-21T00:22:41;45.20;;;21.27;;
75887;SDS011;64562;55.662;37.300;2023-11-21T00:25:08;45.08;;;21.05;;
75887;SDS011;64562;55.662;37.300;2023-11-21T00:27:35;47.80;;;22.52;;
75887;SDS011;64562;55.662;37.300;2023-11-21T00:30:02;45.42;;;22.30;;
75887;SDS011;64562;55.662;37.300;2023-11-21T00:32:30;51.03;;;24.10;;
75887;SDS011;64562;55.662;37.300;2023-11-21T00:34:58;46.20;;;22.52;;
75887;SDS011;64562;55.662;37.300;2023-11-21T00:37:25;44.28;;;21.52;;
75887;SDS011;64562;55.662;37.300;2023-11-21T00:39:52;42.67;;;20.15;;
75887;SDS011;64562;55.662;37.300;2023-11-21T00:42:18;43.15;;;23.05;;
75887;SDS011;64562;55.662;37.300;2023-11-21T00:44:46;38.53;;;20.45;;
75887;SDS011;64562;55.662;37.300;2023-11-21T00:47:13;40.22;;;20.17;;
75887;SDS011;64562;55.662;37.300;2023-11-21T00:49:39;44.45;;;20.70;;
75887;SDS011;64562;55.662;37.300;2023-11-21T00:52:07;43.63;;;20.92;;
75887;SDS011;64562;55.662;37.300;2023-11-21T00:54:34;41.25;;;20.33;;
75887;SDS011;64562;55.662;37.300;2023-11-21T00:57:01;40.67;;;20.52;;
75887;SDS011;64562;55.662;37.300;2023-11-21T00:59:28;44.55;;;20.45;;
75887;SDS011;64562;55.662;37.300;2023-11-21T01:01:55;43.65;;;20.63;;
75887;SDS011;64562;55.662;37.300;2023-11-21T01:06:51;40.83;;;20.25;;
75887;SDS011;64562;55.662;37.300;2023-11-21T01:09:19;39.08;;;20.35;;
75887;SDS011;64562;55.662;37.300;2023-11-21T01:11:46;44.95;;;22.92;;
75887;SDS011;64562;55.662;37.300;2023-11-21T01:14:12;42.85;;;21.48;;
75887;SDS011;64562;55.662;37.300;2023-11-21T01:16:39;47.40;;;23.73;;
75887;SDS011;64562;55.662;37.300;2023-11-21T01:19:05;40.40;;;19.65;;
75887;SDS011;64562;55.662;37.300;2023-11-21T01:21:32;44.42;;;22.40;;
75887;SDS011;64562;55.662;37.300;2023-11-21T01:23:59;45.22;;;21.48;;
75887;SDS011;64562;55.662;37.300;2023-11-21T01:26:26;44.00;;;21.48;;
75887;SDS011;64562;55.662;37.300;2023-11-21T01:28:53;37.03;;;19.35;;
75887;SDS011;64562;55.662;37.300;2023-11-21T01:31:20;44.65;;;20.75;;
75887;SDS011;64562;55.662;37.300;2023-11-21T01:33:46;39.78;;;19.90;;
75887;SDS011;64562;55.662;37.300;2023-11-21T01:36:13;40.70;;;19.55;;
75887;SDS011;64562;55.662;37.300;2023-11-21T01:38:40;45.17;;;21.88;;
75887;SDS011;64562;55.662;37.300;2023-11-21T01:41:07;38.22;;;19.27;;
75887;SDS011;64562;55.662;37.300;2023-11-21T01:43:37;48.45;;;21.73;;
75887;SDS011;64562;55.662;37.300;2023-11-21T01:46:04;45.80;;;22.58;;
75887;SDS011;64562;55.662;37.300;2023-11-21T01:48:31;44.03;;;23.13;;
75887;SDS011;64562;55.662;37.300;2023-11-21T01:50:58;40.45;;;19.50;;
75887;SDS011;64562;55.662;37.300;2023-11-21T01:53:25;50.50;;;24.27;;
75887;SDS011;64562;55.662;37.300;2023-11-21T01:55:52;51.15;;;24.05;;
75887;SDS011;64562;55.662;37.300;2023-11-21T01:58:19;45.17;;;20.92;;
75887;SDS011;64562;55.662;37.300;2023-11-21T02:00:48;39.67;;;19.42;;
75887;SDS011;64562;55.662;37.300;2023-11-21T02:03:16;47.22;;;22.20;;
75887;SDS011;64562;55.662;37.300;2023-11-21T02:05:42;46.03;;;22.15;;
75887;SDS011;64562;55.662;37.300;2023-11-21T02:08:09;43.80;;;22.45;;
75887;SDS011;64562;55.662;37.300;2023-11-21T02:10:36;52.25;;;25.63;;
75887;SDS011;64562;55.662;37.300;2023-11-21T02:13:02;47.17;;;24.08;;
75887;SDS011;64562;55.662;37.300;2023-11-21T02:15:29;45.22;;;22.75;;
75887;SDS011;64562;55.662;37.300;2023-11-21T02:17:57;50.65;;;23.63;;
75887;SDS011;64562;55.662;37.300;2023-11-21T02:20:24;48.60;;;23.60;;
75887;SDS011;64562;55.662;37.300;2023-11-21T02:22:53;45.28;;;21.23;;
75887;SDS011;64562;55.662;37.300;2023-11-21T02:25:22;53.03;;;23.85;;
75887;SDS011;64562;55.662;37.300;2023-11-21T02:27:49;45.40;;;22.00;;
75887;SDS011;64562;55.662;37.300;2023-11-21T02:30:16;48.08;;;24.88;;
75887;SDS011;64562;55.662;37.300;2023-11-21T02:32:43;46.17;;;22.38;;
75887;SDS011;64562;55.662;37.300;2023-11-21T02:35:11;44.80;;;22.33;;
75887;SDS011;64562;55.662;37.300;2023-11-21T02:37:37;41.70;;;20.58;;
75887;SDS011;64562;55.662;37.300;2023-11-21T02:40:08;40.50;;;19.25;;
75887;SDS011;64562;55.662;37.300;2023-11-21T02:42:35;37.28;;;19.05;;
75887;SDS011;64562;55.662;37.300;2023-11-21T02:45:01;40.97;;;20.95;;
75887;SDS011;64562;55.662;37.300;2023-11-21T02:47:28;42.40;;;19.83;;
75887;SDS011;64562;55.662;37.300;2023-11-21T02:49:55;39.25;;;21.08;;
75887;SDS011;64562;55.662;37.300;2023-11-21T02:52:21;44.38;;;20.60;;
75887;SDS011;64562;55.662;37.300;2023-11-21T02:54:48;43.28;;;20.20;;
75887;SDS011;64562;55.662;37.300;2023-11-21T02:57:16;39.00;;;19.33;;
75887;SDS011;64562;55.662;37.300;2023-11-21T02:59:43;46.15;;;22.48;;
75887;SDS011;64562;55.662;37.300;2023-11-21T03:02:10;42.58;;;21.63;;
75887;SDS011;64562;55.662;37.300;2023-11-21T03:04:37;56.20;;;25.90;;
75887;SDS011;64562;55.662;37.300;2023-11-21T03:07:03;50.58;;;23.90;;
75887;SDS011;64562;55.662;37.300;2023-11-21T03:09:30;43.03;;;22.13;;
75887;SDS011;64562;55.662;37.300;2023-11-21T03:11:57;48.28;;;22.98;;
75887;SDS011;64562;55.662;37.300;2023-11-21T03:14:25;45.30;;;22.08;;
75887;SDS011;64562;55.662;37.300;2023-11-21T03:16:51;51.92;;;23.13;;
75887;SDS011;64562;55.662;37.300;2023-11-21T03:19:18;49.67;;;23.02;;
75887;SDS011;64562;55.662;37.300;2023-11-21T03:21:44;45.20;;;21.00;;
75887;SDS011;64562;55.662;37.300;2023-11-21T03:24:11;50.80;;;22.50;;
75887;SDS011;64562;55.662;37.300;2023-11-21T03:26:37;48.55;;;22.73;;
75887;SDS011;64562;55.662;37.300;2023-11-21T03:29:04;51.15;;;23.88;;
75887;SDS011;64562;55.662;37.300;2023-11-21T03:31:32;47.90;;;22.13;;
75887;SDS011;64562;55.662;37.300;2023-11-21T03:33:59;45.20;;;20.15;;
75887;SDS011;64562;55.662;37.300;2023-11-21T03:36:25;47.70;;;23.33;;
75887;SDS011;64562;55.662;37.300;2023-11-21T03:38:52;46.78;;;20.55;;
75887;SDS011;64562;55.662;37.300;2023-11-21T03:41:18;49.78;;;22.92;;
75887;SDS011;64562;55.662;37.300;2023-11-21T03:43:45;54.67;;;24.80;;
75887;SDS011;64562;55.662;37.300;2023-11-21T03:46:11;51.28;;;24.70;;
75887;SDS011;64562;55.662;37.300;2023-11-21T03:48:40;42.25;;;20.63;;
75887;SDS011;64562;55.662;37.300;2023-11-21T03:51:07;41.97;;;20.75;;
75887;SDS011;64562;55.662;37.300;2023-11-21T03:53:33;44.08;;;20.92;;
75887;SDS011;64562;55.662;37.300;2023-11-21T03:56:01;46.78;;;22.00;;
75887;SDS011;64562;55.662;37.300;2023-11-21T03:58:28;43.75;;;20.23;;
75887;SDS011;64562;55.662;37.300;2023-11-21T04:00:54;40.47;;;20.65;;
75887;SDS011;64562;55.662;37.300;2023-11-21T04:03:21;42.50;;;21.17;;
75887;SDS011;64562;55.662;37.300;2023-11-21T04:05:49;47.58;;;21.48;;
75887;SDS011;64562;55.662;37.300;2023-11-21T04:08:16;49.17;;;24.60;;
75887;SDS011;64562;55.662;37.300;2023-11-21T04:10:43;45.28;;;22.67;;
75887;SDS011;64562;55.662;37.300;2023-11-21T04:13:09;51.33;;;26.23;;
75887;SDS011;64562;55.662;37.300;2023-11-21T04:15:36;59.47;;;26.58;;
75887;SDS011;64562;55.662;37.300;2023-11-21T04:18:03;47.38;;;22.60;;
75887;SDS011;64562;55.662;37.300;2023-11-21T04:20:29;50.85;;;24.30;;
75887;SDS011;64562;55.662;37.300;2023-11-21T04:22:57;50.65;;;24.25;;
75887;SDS011;64562;55.662;37.300;2023-11-21T04:25:24;57.70;;;25.13;;
75887;SDS011;64562;55.662;37.300;2023-11-21T04:27:50;47.20;;;23.92;;
75887;SDS011;64562;55.662;37.300;2023-11-21T04:30:17;54.50;;;24.10;;
75887;SDS011;64562;55.662;37.300;2023-11-21T04:32:43;47.85;;;24.25;;
75887;SDS011;64562;55.662;37.300;2023-11-21T04:35:10;49.55;;;23.85;;
75887;SDS011;64562;55.662;37.300;2023-11-21T04:37:37;46.97;;;22.52;;
75887;SDS011;64562;55.662;37.300;2023-11-21T04:40:05;48.83;;;22.55;;
75887;SDS011;64562;55.662;37.300;2023-11-21T04:42:33;51.92;;;22.60;;
75887;SDS011;64562;55.662;37.300;2023-11-21T04:45:00;49.55;;;23.40;;
75887;SDS011;64562;55.662;37.300;2023-11-21T04:47:26;50.75;;;25.00;;
75887;SDS011;64562;55.662;37.300;2023-11-21T04:49:55;51.65;;;23.95;;
75887;SDS011;64562;55.662;37.300;2023-11-21T04:52:22;55.40;;;25.52;;
75887;SDS011;64562;55.662;37.300;2023-11-21T04:54:49;53.53;;;24.48;;
75887;SDS011;64562;55.662;37.300;2023-11-21T04:57:17;53.80;;;25.33;;
75887;SDS011;64562;55.662;37.300;2023-11-21T04:59:44;53.58;;;25.25;;
75887;SDS011;64562;55.662;37.300;2023-11-21T05:02:10;48.58;;;21.90;;
75887;SDS011;64562;55.662;37.300;2023-11-21T05:04:37;54.30;;;24.75;;
75887;SDS011;64562;55.662;37.300;2023-11-21T05:07:04;54.05;;;24.40;;
75887;SDS011;64562;55.662;37.300;2023-11-21T05:09:30;53.28;;;25.05;;
75887;SDS011;64562;55.662;37.300;2023-11-21T05:11:57;49.80;;;25.88;;
75887;SDS011;64562;55.662;37.300;2023-11-21T05:14:26;55.05;;;24.80;;
75887;SDS011;64562;55.662;37.300;2023-11-21T05:16:53;49.75;;;24.20;;
75887;SDS011;64562;55.662;37.300;2023-11-21T05:19:19;48.17;;;22.98;;
75887;SDS011;64562;55.662;37.300;2023-11-21T05:21:46;52.17;;;23.65;;
75887;SDS011;64562;55.662;37.300;2023-11-21T05:24:13;53.33;;;24.85;;
75887;SDS011;64562;55.662;37.300;2023-11-21T05:26:40;54.15;;;24.45;;
75887;SDS011;64562;55.662;37.300;2023-11-21T05:29:07;51.00;;;24.23;;
75887;SDS011;64562;55.662;37.300;2023-11-21T05:31:36;56.42;;;25.98;;
75887;SDS011;64562;55.662;37.300;2023-11-21T05:34:03;50.92;;;22.70;;
75887;SDS011;64562;55.662;37.300;2023-11-21T05:36:30;58.50;;;25.20;;
75887;SDS011;64562;55.662;37.300;2023-11-21T05:38:56;54.38;;;25.58;;
75887;SDS011;64562;55.662;37.300;2023-11-21T05:41:23;56.72;;;24.63;;
75887;SDS011;64562;55.662;37.300;2023-11-21T05:43:50;55.20;;;24.13;;
75887;SDS011;64562;55.662;37.300;2023-11-21T05:46:19;56.00;;;25.10;;
75887;SDS011;64562;55.662;37.300;2023-11-21T05:48:48;54.10;;;23.45;;
75887;SDS011;64562;55.662;37.300;2023-11-21T05:51:15;52.35;;;24.20;;
75887;SDS011;64562;55.662;37.300;2023-11-21T05:53:42;47.70;;;23.27;;
75887;SDS011;64562;55.662;37.300;2023-11-21T05:56:09;48.10;;;20.63;;
75887;SDS011;64562;55.662;37.300;2023-11-21T05:58:35;45.72;;;21.58;;
75887;SDS011;64562;55.662;37.300;2023-11-21T06:01:02;48.35;;;21.80;;
75887;SDS011;64562;55.662;37.300;2023-11-21T06:03:32;47.92;;;23.30;;
75887;SDS011;64562;55.662;37.300;2023-11-21T06:06:00;46.22;;;21.75;;
75887;SDS011;64562;55.662;37.300;2023-11-21T06:08:27;52.22;;;22.88;;
75887;SDS011;64562;55.662;37.300;2023-11-21T06:10:54;45.90;;;22.95;;
75887;SDS011;64562;55.662;37.300;2023-11-21T06:13:20;44.22;;;19.90;;
75887;SDS011;64562;55.662;37.300;2023-11-21T06:15:49;53.45;;;24.30;;
75887;SDS011;64562;55.662;37.300;2023-11-21T06:18:16;52.05;;;23.40;;
75887;SDS011;64562;55.662;37.300;2023-11-21T06:20:44;49.28;;;22.40;;
75887;SDS011;64562;55.662;37.300;2023-11-21T06:23:12;52.13;;;23.33;;
75887;SDS011;64562;55.662;37.300;2023-11-21T06:25:39;45.95;;;22.15;;
75887;SDS011;64562;55.662;37.300;2023-11-21T06:28:05;55.72;;;25.55;;
75887;SDS011;64562;55.662;37.300;2023-11-21T06:30:32;45.05;;;21.70;;
75887;SDS011;64562;55.662;37.300;2023-11-21T06:32:59;48.92;;;23.77;;
75887;SDS011;64562;55.662;37.300;2023-11-21T06:35:26;47.80;;;23.30;;
75887;SDS011;64562;55.662;37.300;2023-11-21T06:37:55;48.50;;;24.15;;
75887;SDS011;64562;55.662;37.300;2023-11-21T06:40:23;45.25;;;21.52;;
75887;SDS011;64562;55.662;37.300;2023-11-21T06:42:50;47.13;;;22.77;;
75887;SDS011;64562;55.662;37.300;2023-11-21T06:45:17;51.50;;;23.30;;
75887;SDS011;64562;55.662;37.300;2023-11-21T06:47:43;49.65;;;25.33;;
75887;SDS011;64562;55.662;37.300;2023-11-21T06:50:10;54.22;;;24.92;;
75887;SDS011;64562;55.662;37.300;2023-11-21T06:52:37;53.95;;;26.15;;
75887;SDS011;64562;55.662;37.300;2023-11-21T06:55:04;44.95;;;20.98;;
75887;SDS011;64562;55.662;37.300;2023-11-21T06:57:34;47.05;;;21.08;;
75887;SDS011;64562;55.662;37.300;2023-11-21T07:00:01;54.47;;;24.13;;
75887;SDS011;64562;55.662;37.300;2023-11-21T07:02:28;48.50;;;22.35;;
75887;SDS011;64562;55.662;37.300;2023-11-21T07:04:55;47.83;;;22.48;;
75887;SDS011;64562;55.662;37.300;2023-11-21T07:07:21;45.72;;;21.77;;
75887;SDS011;64562;55.662;37.300;2023-11-21T07:09:48;51.83;;;23.48;;
75887;SDS011;64562;55.662;37.300;2023-11-21T07:12:14;45.28;;;22.23;;
75887;SDS011;64562;55.662;37.300;2023-11-21T07:14:42;47.45;;;22.35;;
75887;SDS011;64562;55.662;37.300;2023-11-21T07:17:10;51.00;;;24.95;;
75887;SDS011;64562;55.662;37.300;2023-11-21T07:19:37;51.10;;;22.58;;
75887;SDS011;64562;55.662;37.300;2023-11-21T07:22:03;44.92;;;22.73;;
75887;SDS011;64562;55.662;37.300;2023-11-21T07:24:31;52.35;;;24.95;;
75887;SDS011;64562;55.662;37.300;2023-11-21T07:26:57;50.25;;;22.75;;
75887;SDS011;64562;55.662;37.300;2023-11-21T07:29:24;46.28;;;22.58;;
75887;SDS011;64562;55.662;37.300;2023-11-21T07:31:53;43.67;;;21.48;;
75887;SDS011;64562;55.662;37.300;2023-11-21T07:34:19;49.45;;;21.77;;
75887;SDS011;64562;55.662;37.300;2023-11-21T07:36:46;47.38;;;22.50;;
75887;SDS011;64562;55.662;37.300;2023-11-21T07:39:12;47.25;;;24.00;;
75887;SDS011;64562;55.662;37.300;2023-11-21T07:41:41;55.50;;;24.17;;
75887;SDS011;64562;55.662;37.300;2023-11-21T07:44:13;47.55;;;22.42;;
75887;SDS011;64562;55.662;37.300;2023-11-21T07:46:40;52.50;;;23.80;;
75887;SDS011;64562;55.662;37.300;2023-11-21T07:49:08;48.75;;;22.38;;
75887;SDS011;64562;55.662;37.300;2023-11-21T07:51:35;46.95;;;22.65;;
75887;SDS011;64562;55.662;37.300;2023-11-21T07:54:02;47.65;;;23.00;;
75887;SDS011;64562;55.662;37.300;2023-11-21T07:56:28;52.15;;;26.33;;
75887;SDS011;64562;55.662;37.300;2023-11-21T07:58:55;48.83;;;23.27;;
75887;SDS011;64562;55.662;37.300;2023-11-21T08:01:21;45.45;;;22.55;;
75887;SDS011;64562;55.662;37.300;2023-11-21T08:03:48;52.53;;;24.27;;
75887;SDS011;64562;55.662;37.300;2023-11-21T08:06:19;52.05;;;23.80;;
75887;SDS011;64562;55.662;37.300;2023-11-21T08:08:45;47.13;;;21.38;;
75887;SDS011;64562;55.662;37.300;2023-11-21T08:11:12;53.38;;;25.88;;
75887;SDS011;64562;55.662;37.300;2023-11-21T08:13:39;49.72;;;24.52;;
75887;SDS011;64562;55.662;37.300;2023-11-21T08:16:06;48.53;;;23.85;;
75887;SDS011;64562;55.662;37.300;2023-11-21T08:18:33;53.17;;;25.38;;
75887;SDS011;64562;55.662;37.300;2023-11-21T08:21:00;55.70;;;24.13;;
75887;SDS011;64562;55.662;37.300;2023-11-21T08:23:29;51.65;;;24.17;;
75887;SDS011;64562;55.662;37.300;2023-11-21T08:25:56;53.92;;;24.88;;
75887;SDS011;64562;55.662;37.300;2023-11-21T08:28:22;46.38;;;22.48;;
75887;SDS011;64562;55.662;37.300;2023-11-21T08:30:51;51.40;;;23.75;;
75887;SDS011;64562;55.662;37.300;2023-11-21T08:33:17;53.75;;;24.33;;
75887;SDS011;64562;55.662;37.300;2023-11-21T08:35:44;50.38;;;22.10;;
75887;SDS011;64562;55.662;37.300;2023-11-21T08:38:11;54.63;;;23.80;;
75887;SDS011;64562;55.662;37.300;2023-11-21T08:40:39;48.63;;;22.92;;
75887;SDS011;64562;55.662;37.300;2023-11-21T08:43:05;48.35;;;22.95;;
75887;SDS011;64562;55.662;37.300;2023-11-21T08:45:33;56.67;;;24.45;;
75887;SDS011;64562;55.662;37.300;2023-11-21T08:48:00;53.58;;;24.60;;
75887;SDS011;64562;55.662;37.300;2023-11-21T08:50:27;57.35;;;25.08;;
75887;SDS011;64562;55.662;37.300;2023-11-21T08:52:53;50.72;;;23.13;;
75887;SDS011;64562;55.662;37.300;2023-11-21T08:55:20;55.47;;;24.58;;
75887;SDS011;64562;55.662;37.300;2023-11-21T08:57:48;55.28;;;25.55;;
75887;SDS011;64562;55.662;37.300;2023-11-21T09:00:16;49.95;;;25.75;;
75887;SDS011;64562;55.662;37.300;2023-11-21T09:02:44;48.58;;;23.67;;
75887;SDS011;64562;55.662;37.300;2023-11-21T09:05:11;55.60;;;24.63;;
75887;SDS011;64562;55.662;37.300;2023-11-21T09:07:38;47.80;;;25.13;;
75887;SDS011;64562;55.662;37.300;2023-11-21T09:10:06;54.53;;;25.15;;
75887;SDS011;64562;55.662;37.300;2023-11-21T09:12:34;52.95;;;28.13;;
75887;SDS011;64562;55.662;37.300;2023-11-21T09:15:04;54.70;;;27.17;;
75887;SDS011;64562;55.662;37.300;2023-11-21T09:17:31;55.10;;;24.95;;
75887;SDS011;64562;55.662;37.300;2023-11-21T09:19:57;51.63;;;25.05;;
75887;SDS011;64562;55.662;37.300;2023-11-21T09:22:24;52.50;;;25.48;;
75887;SDS011;64562;55.662;37.300;2023-11-21T09:24:51;56.42;;;26.25;;
75887;SDS011;64562;55.662;37.300;2023-11-21T09:27:17;53.70;;;24.88;;
75887;SDS011;64562;55.662;37.300;2023-11-21T09:29:44;55.60;;;25.33;;
75887;SDS011;64562;55.662;37.300;2023-11-21T09:32:12;56.75;;;25.02;;
75887;SDS011;64562;55.662;37.300;2023-11-21T09:34:41;51.90;;;26.63;;
75887;SDS011;64562;55.662;37.300;2023-11-21T09:37:08;54.78;;;25.85;;
75887;SDS011;64562;55.662;37.300;2023-11-21T09:39:34;51.80;;;25.05;;
75887;SDS011;64562;55.662;37.300;2023-11-21T09:42:04;56.47;;;24.55;;
75887;SDS011;64562;55.662;37.300;2023-11-21T09:44:32;55.60;;;26.52;;
75887;SDS011;64562;55.662;37.300;2023-11-21T09:47:00;51.83;;;25.50;;
75887;SDS011;64562;55.662;37.300;2023-11-21T09:49:29;55.80;;;23.95;;
75887;SDS011;64562;55.662;37.300;2023-11-21T09:52:00;59.05;;;28.25;;
75887;SDS011;64562;55.662;37.300;2023-11-21T09:54:28;55.28;;;23.60;;
75887;SDS011;64562;55.662;37.300;2023-11-21T09:56:56;55.75;;;25.27;;
75887;SDS011;64562;55.662;37.300;2023-11-21T09:59:23;56.28;;;24.98;;
75887;SDS011;64562;55.662;37.300;2023-11-21T10:01:50;51.83;;;26.50;;
75887;SDS011;64562;55.662;37.300;2023-11-21T10:04:17;48.35;;;22.90;;
75887;SDS011;64562;55.662;37.300;2023-11-21T10:06:46;42.53;;;22.17;;
75887;SDS011;64562;55.662;37.300;2023-11-21T10:09:14;40.33;;;20.58;;
75887;SDS011;64562;55.662;37.300;2023-11-21T10:11:42;31.50;;;15.55;;
75887;SDS011;64562;55.662;37.300;2023-11-21T10:14:10;31.88;;;16.17;;
75887;SDS011;64562;55.662;37.300;2023-11-21T10:16:38;41.95;;;15.20;;
75887;SDS011;64562;55.662;37.300;2023-11-21T10:19:06;30.45;;;14.57;;
75887;SDS011;64562;55.662;37.300;2023-11-21T10:21:35;29.17;;;14.45;;
75887;SDS011;64562;55.662;37.300;2023-11-21T10:24:04;33.10;;;12.77;;
75887;SDS011;64562;55.662;37.300;2023-11-21T10:26:31;25.48;;;11.90;;
75887;SDS011;64562;55.662;37.300;2023-11-21T10:28:58;23.88;;;12.48;;
75887;SDS011;64562;55.662;37.300;2023-11-21T10:31:26;25.45;;;11.55;;
75887;SDS011;64562;55.662;37.300;2023-11-21T10:33:53;18.92;;;10.88;;
75887;SDS011;64562;55.662;37.300;2023-11-21T10:36:26;19.83;;;8.75;;
75887;SDS011;64562;55.662;37.300;2023-11-21T10:38:52;15.75;;;8.38;;
75887;SDS011;64562;55.662;37.300;2023-11-21T10:41:21;22.52;;;11.75;;
75887;SDS011;64562;55.662;37.300;2023-11-21T10:43:47;25.92;;;12.27;;
75887;SDS011;64562;55.662;37.300;2023-11-21T10:46:14;33.88;;;15.07;;
75887;SDS011;64562;55.662;37.300;2023-11-21T10:48:41;31.83;;;15.88;;
75887;SDS011;64562;55.662;37.300;2023-11-21T10:51:08;32.38;;;16.27;;
75887;SDS011;64562;55.662;37.300;2023-11-21T10:53:38;34.25;;;16.85;;
75887;SDS011;64562;55.662;37.300;2023-11-21T10:56:05;36.25;;;16.20;;
75887;SDS011;64562;55.662;37.300;2023-11-21T10:58:34;37.25;;;19.05;;
75887;SDS011;64562;55.662;37.300;2023-11-21T11:01:02;36.88;;;17.90;;
75887;SDS011;64562;55.662;37.300;2023-11-21T11:05:58;39.20;;;18.15;;
75887;SDS011;64562;55.662;37.300;2023-11-21T11:08:25;41.90;;;18.55;;
75887;SDS011;64562;55.662;37.300;2023-11-21T11:10:52;42.20;;;19.23;;
75887;SDS011;64562;55.662;37.300;2023-11-21T11:13:19;40.10;;;17.90;;
75887;SDS011;64562;55.662;37.300;2023-11-21T11:15:48;35.83;;;18.98;;
75887;SDS011;64562;55.662;37.300;2023-11-21T11:18:15;43.15;;;19.45;;
75887;SDS011;64562;55.662;37.300;2023-11-21T11:20:42;41.80;;;20.42;;
75887;SDS011;64562;55.662;37.300;2023-11-21T11:23:16;41.67;;;19.80;;
75887;SDS011;64562;55.662;37.300;2023-11-21T11:25:51;49.95;;;20.00;;
75887;SDS011;64562;55.662;37.300;2023-11-21T11:28:20;37.58;;;18.52;;
75887;SDS011;64562;55.662;37.300;2023-11-21T11:30:53;43.15;;;20.83;;
75887;SDS011;64562;55.662;37.300;2023-11-21T11:33:26;39.47;;;19.80;;
75887;SDS011;64562;55.662;37.300;2023-11-21T11:36:00;45.22;;;21.63;;
75887;SDS011;64562;55.662;37.300;2023-11-21T11:38:30;46.83;;;23.25;;
75887;SDS011;64562;55.662;37.300;2023-11-21T11:40:57;44.60;;;21.67;;
75887;SDS011;64562;55.662;37.300;2023-11-21T11:43:28;43.17;;;20.98;;
75887;SDS011;64562;55.662;37.300;2023-11-21T11:45:57;45.45;;;23.27;;
75887;SDS011;64562;55.662;37.300;2023-11-21T11:48:24;43.95;;;21.52;;
75887;SDS011;64562;55.662;37.300;2023-11-21T11:51:01;44.50;;;22.05;;
75887;SDS011;64562;55.662;37.300;2023-11-21T11:53:28;51.42;;;23.80;;
75887;SDS011;64562;55.662;37.300;2023-11-21T11:56:00;54.55;;;27.60;;
75887;SDS011;64562;55.662;37.300;2023-11-21T11:58:46;45.97;;;23.52;;
75887;SDS011;64562;55.662;37.300;2023-11-21T12:01:15;45.65;;;22.67;;
75887;SDS011;64562;55.662;37.300;2023-11-21T12:03:42;41.85;;;21.50;;
75887;SDS011;64562;55.662;37.300;2023-11-21T12:06:09;55.00;;;27.60;;
75887;SDS011;64562;55.662;37.300;2023-11-21T12:08:36;48.45;;;22.98;;
75887;SDS011;64562;55.662;37.300;2023-11-21T12:11:03;47.10;;;25.02;;
75887;SDS011;64562;55.662;37.300;2023-11-21T12:13:30;53.67;;;26.80;;
75887;SDS011;64562;55.662;37.300;2023-11-21T12:15:57;47.22;;;24.23;;
75887;SDS011;64562;55.662;37.300;2023-11-21T12:18:26;49.20;;;24.15;;
75887;SDS011;64562;55.662;37.300;2023-11-21T12:20:52;49.72;;;24.92;;
75887;SDS011;64562;55.662;37.300;2023-11-21T12:23:19;49.00;;;24.10;;
75887;SDS011;64562;55.662;37.300;2023-11-21T12:25:46;49.53;;;23.75;;
75887;SDS011;64562;55.662;37.300;2023-11-21T12:28:13;54.35;;;24.58;;
75887;SDS011;64562;55.662;37.300;2023-11-21T12:30:39;51.72;;;24.02;;
75887;SDS011;64562;55.662;37.300;2023-11-21T12:33:06;52.17;;;24.95;;
75887;SDS011;64562;55.662;37.300;2023-11-21T12:35:35;52.75;;;27.55;;
75887;SDS011;64562;55.662;37.300;2023-11-21T12:38:03;54.83;;;26.52;;
75887;SDS011;64562;55.662;37.300;2023-11-21T12:40:30;46.40;;;23.20;;
75887;SDS011;64562;55.662;37.300;2023-11-21T12:42:56;54.47;;;26.80;;
75887;SDS011;64562;55.662;37.300;2023-11-21T12:45:24;48.08;;;23.95;;
75887;SDS011;64562;55.662;37.300;2023-11-21T12:47:53;54.42;;;26.02;;
75887;SDS011;64562;55.662;37.300;2023-11-21T12:50:22;49.75;;;24.35;;
75887;SDS011;64562;55.662;37.300;2023-11-21T12:52:53;48.53;;;22.88;;
75887;SDS011;64562;55.662;37.300;2023-11-21T12:55:20;45.67;;;23.83;;
75887;SDS011;64562;55.662;37.300;2023-11-21T12:57:48;53.53;;;26.77;;
75887;SDS011;64562;55.662;37.300;2023-11-21T13:00:16;53.30;;;24.80;;
75887;SDS011;64562;55.662;37.300;2023-11-21T13:02:52;53.38;;;25.08;;
75887;SDS011;64562;55.662;37.300;2023-11-21T13:05:28;54.13;;;25.00;;
75887;SDS011;64562;55.662;37.300;2023-11-21T13:07:57;56.83;;;26.67;;
75887;SDS011;64562;55.662;37.300;2023-11-21T13:10:25;52.45;;;26.77;;
75887;SDS011;64562;55.662;37.300;2023-11-21T13:12:56;50.30;;;26.75;;
75887;SDS011;64562;55.662;37.300;2023-11-21T13:15:25;53.08;;;27.70;;
75887;SDS011;64562;55.662;37.300;2023-11-21T13:17:53;52.97;;;25.73;;
75887;SDS011;64562;55.662;37.300;2023-11-21T13:20:21;52.30;;;25.85;;
75887;SDS011;64562;55.662;37.300;2023-11-21T13:22:50;59.50;;;29.63;;
75887;SDS011;64562;55.662;37.300;2023-11-21T13:25:20;55.95;;;26.27;;
75887;SDS011;64562;55.662;37.300;2023-11-21T13:27:47;57.63;;;28.10;;
75887;SDS011;64562;55.662;37.300;2023-11-21T13:30:15;50.33;;;24.77;;
75887;SDS011;64562;55.662;37.300;2023-11-21T13:32:42;57.60;;;26.50;;
75887;SDS011;64562;55.662;37.300;2023-11-21T13:35:09;53.97;;;25.92;;
75887;SDS011;64562;55.662;37.300;2023-11-21T13:40:14;56.85;;;25.30;;
75887;SDS011;64562;55.662;37.300;2023-11-21T13:42:46;58.33;;;26.35;;
75887;SDS011;64562;55.662;37.300;2023-11-21T13:45:13;50.63;;;25.02;;
75887;SDS011;64562;55.662;37.300;2023-11-21T13:47:42;53.25;;;25.65;;
75887;SDS011;64562;55.662;37.300;2023-11-21T13:50:10;53.58;;;24.98;;
75887;SDS011;64562;55.662;37.300;2023-11-21T13:52:42;53.08;;;25.30;;
75887;SDS011;64562;55.662;37.300;2023-11-21T13:55:10;65.00;;;31.00;;
75887;SDS011;64562;55.662;37.300;2023-11-21T13:57:40;60.92;;;28.15;;
75887;SDS011;64562;55.662;37.300;2023-11-21T14:00:10;62.42;;;26.85;;
75887;SDS011;64562;55.662;37.300;2023-11-21T14:02:57;55.47;;;25.52;;
75887;SDS011;64562;55.662;37.300;2023-11-21T14:05:26;58.92;;;30.08;;
75887;SDS011;64562;55.662;37.300;2023-11-21T14:07:55;61.75;;;28.50;;
75887;SDS011;64562;55.662;37.300;2023-11-21T14:10:27;56.08;;;27.23;;
75887;SDS011;64562;55.662;37.300;2023-11-21T14:13:02;52.33;;;25.90;;
75887;SDS011;64562;55.662;37.300;2023-11-21T14:15:30;56.33;;;26.45;;
75887;SDS011;64562;55.662;37.300;2023-11-21T14:17:58;62.22;;;27.83;;